Lethbridge, Canada
Current Conditions -  °F | °C
As of 3:00 PM on Monday 26 Jan 2015 (Local Time) from CYQL Reporting Station
Broken Clouds Broken Clouds  
Wind Chill: 66°   Ceiling: 30000
Heat Index: 66°   Visibility: 40mi
Dew Point: 34°   Wind: 15mph
Humidity: 30%   Direction: 220°SW
Pressure: 29.81"   Gusts: 22mph
Location:  49.69°N, 112.83°W
Report Text: CYQL 262200Z 22013G19KT 40SM BKN300 19/01 A2981 RMK CI6 SLP092 DENSITY ALT 4300FT
Loading
Personal Weather Stations






























Interactive Weather Map New forecast layout! Learn more

10-Day Weather Forecast

Advertisements
Track Severe Weather on mobile